Time;durP1;ratioP1;P1;durP2;ratioP2;P2;SDS_P1;SDS_P2;PMS_P1;PMS_P2;Temp;Humidity;BMP_temperature;BMP_pressure;BME280_temperature;BME280_humidity;BME280_pressure;Samples;Min_cycle;Max_cycle;Signal;HPM_P1;HPM_P2
2022/05/02 00:01:45;;;;;;;22.55;9.85;;;;;;;11.09;65.82;100678.16;4964988;28;20051;-43
2022/05/02 00:04:11;;;;;;;23.60;8.88;;;;;;;11.08;66.43;100672.97;4969179;28;20051;-44
2022/05/02 00:06:39;;;;;;;25.27;9.52;;;;;;;11.07;66.47;100681.63;4968871;28;20723;-41
2022/05/02 00:09:05;;;;;;;22.70;8.40;;;;;;;11.04;65.73;100672.94;4966868;28;20043;-41
2022/05/02 00:11:32;;;;;;;22.65;10.32;;;;;;;11.04;65.84;100670.34;4969897;28;20102;-42
2022/05/02 00:13:58;;;;;;;26.15;9.95;;;;;;;11.04;66.00;100678.13;4967240;28;20475;-40
2022/05/02 00:16:25;;;;;;;24.50;9.70;;;;;;;11.05;65.54;100668.63;4967783;28;20582;-42
2022/05/02 00:18:52;;;;;;;22.83;9.18;;;;;;;11.07;65.77;100671.25;4969596;28;20130;-40
2022/05/02 00:21:18;;;;;;;24.75;10.02;;;;;;;11.07;65.34;100666.91;4967732;28;20451;-41
2022/05/02 00:23:45;;;;;;;24.70;9.52;;;;;;;11.07;65.65;100671.25;4967722;28;20643;-41
2022/05/02 00:26:29;;;;;;;24.40;10.25;;;;;;;11.07;65.40;100666.91;4967650;28;20097;-40
2022/05/02 00:29:13;;;;;;;22.20;9.35;;;;;;;11.07;65.81;100668.66;4967516;28;20062;-42
2022/05/02 00:31:40;;;;;;;22.58;9.30;;;;;;;11.07;66.09;100659.13;4969117;28;20097;-44
2022/05/02 00:34:07;;;;;;;25.58;9.25;;;;;;;11.08;66.02;100660.00;4967201;28;20137;-40
2022/05/02 00:36:33;;;;;;;24.35;9.32;;;;;;;11.08;66.38;100665.19;4965920;28;20051;-43
2022/05/02 00:39:00;;;;;;;22.48;9.60;;;;;;;11.08;65.38;100663.44;4968351;28;20101;-43
2022/05/02 00:41:27;;;;;;;24.63;9.70;;;;;;;11.08;65.63;100662.59;4967154;28;20093;-40
2022/05/02 00:43:55;;;;;;;21.88;8.82;;;;;;;11.06;65.62;100657.41;4968748;28;20075;-44
2022/05/02 00:46:23;;;;;;;21.48;8.73;;;;;;;11.04;65.60;100652.22;4968382;28;20070;-41
2022/05/02 00:48:52;;;;;;;23.60;9.48;;;;;;;11.03;66.25;100658.25;4949740;28;20054;-40
2022/05/02 00:51:19;;;;;;;21.60;9.07;;;;;;;11.03;66.10;100655.66;4968337;28;20050;-41
2022/05/02 00:53:49;;;;;;;21.98;9.45;;;;;;;11.02;66.35;100661.69;4968138;28;20105;-41
2022/05/02 00:56:16;;;;;;;21.90;9.07;;;;;;;11.02;65.66;100664.28;4966474;28;20105;-44
2022/05/02 00:58:44;;;;;;;20.98;9.57;;;;;;;11.02;66.12;100664.28;4979760;28;20051;-43
2022/05/02 01:01:11;;;;;;;25.40;9.38;;;;;;;11.03;65.92;100660.84;4966121;28;20047;-44
2022/05/02 01:03:38;;;;;;;21.08;9.43;;;;;;;11.02;65.53;100659.09;4967653;28;20724;-43
2022/05/02 01:08:53;;;;;;;22.67;10.02;;;;;;;11.01;66.06;100652.19;4954134;28;20065;-42
2022/05/02 01:11:19;;;;;;;23.70;9.60;;;;;;;11.00;66.31;100654.75;4963068;28;20440;-43
2022/05/02 01:13:48;;;;;;;21.70;10.20;;;;;;;10.99;65.83;100653.03;4965664;28;20086;-47
2022/05/02 01:18:55;;;;;;;24.75;9.38;;;;;;;10.98;66.43;100657.34;5030362;28;20421;-41
2022/05/02 01:21:25;;;;;;;22.80;9.40;;;;;;;10.97;66.53;100657.38;5021152;28;20398;-43
2022/05/02 01:23:54;;;;;;;23.42;8.95;;;;;;;10.95;66.85;100657.34;5008984;28;20061;-38
2022/05/02 01:26:21;;;;;;;25.55;10.15;;;;;;;10.94;66.83;100660.78;5013175;28;20100;-39
2022/05/02 01:28:51;;;;;;;22.70;8.77;;;;;;;10.93;66.56;100659.06;5010125;28;20113;-39
2022/05/02 01:31:19;;;;;;;24.70;8.80;;;;;;;10.92;66.24;100657.34;5008906;28;20049;-41
2022/05/02 01:33:47;;;;;;;26.58;8.95;;;;;;;10.90;67.22;100653.84;5020916;28;20057;-41
2022/05/02 01:36:15;;;;;;;24.20;9.23;;;;;;;10.89;67.37;100654.72;4998808;28;20054;-39
2022/05/02 01:38:42;;;;;;;25.83;9.70;;;;;;;10.89;67.13;100657.31;5018287;28;20068;-40
2022/05/02 01:41:10;;;;;;;27.60;10.90;;;;;;;10.88;67.06;100655.59;5012388;28;20045;-44
2022/05/02 01:43:38;;;;;;;22.95;9.55;;;;;;;10.85;66.41;100658.16;5008417;28;20046;-44
2022/05/02 01:46:08;;;;;;;27.58;10.15;;;;;;;10.85;67.48;100660.75;5014201;28;20046;-42
2022/05/02 01:48:35;;;;;;;;;;;;;;;10.69;67.52;100660.66;5009753;28;20422;-40
2022/05/02 01:51:02;;;;;;;24.08;9.50;;;;;;;10.78;66.57;100657.25;5012199;28;19995;-41
2022/05/02 01:53:29;;;;;;;23.42;9.43;;;;;;;10.79;66.65;100661.56;4999118;28;20128;-43
2022/05/02 01:55:56;;;;;;;27.75;9.38;;;;;;;10.79;66.61;100654.69;5009191;28;20120;-42
2022/05/02 01:58:23;;;;;;;24.48;9.63;;;;;;;10.77;66.91;100653.78;5017475;28;20045;-39
2022/05/02 02:00:51;;;;;;;28.30;10.48;;;;;;;10.76;67.29;100652.06;5012376;28;20468;-40
2022/05/02 02:03:18;;;;;;;23.00;9.68;;;;;;;10.77;67.44;100656.38;5014754;28;20058;-41
2022/05/02 02:05:48;;;;;;;25.45;10.40;;;;;;;10.75;67.36;100655.50;5013200;28;20053;-44
2022/05/02 02:08:19;;;;;;;24.67;10.02;;;;;;;10.75;67.43;100649.47;5017280;28;20057;-42
2022/05/02 02:10:47;;;;;;;23.33;9.15;;;;;;;10.74;66.66;100651.16;5012179;28;20058;-43
2022/05/02 02:13:15;;;;;;;32.42;9.98;;;;;;;10.74;66.92;100653.75;5015480;28;20135;-41
2022/05/02 02:15:41;;;;;;;25.33;9.45;;;;;;;10.72;66.99;100645.13;5012769;28;20100;-41
2022/05/02 02:18:08;;;;;;;25.02;10.32;;;;;;;10.71;66.58;100648.56;5010080;28;20088;-41
2022/05/02 02:20:35;;;;;;;31.70;10.00;;;;;;;10.70;67.07;100654.59;5013219;28;20053;-41
2022/05/02 02:23:03;;;;;;;24.15;9.30;;;;;;;10.70;66.90;100651.16;5009376;28;20061;-41
2022/05/02 02:25:31;;;;;;;28.00;10.68;;;;;;;10.66;67.27;100645.94;5014543;28;20107;-41
2022/05/02 02:28:00;;;;;;;28.15;10.85;;;;;;;10.67;67.26;100641.63;5017428;28;20092;-42
2022/05/02 02:30:29;;;;;;;25.85;10.45;;;;;;;10.67;67.20;100646.81;4999792;28;20052;-45
2022/05/02 02:32:56;;;;;;;27.10;11.32;;;;;;;10.66;67.49;100639.91;5001117;28;20050;-40
2022/05/02 02:35:24;;;;;;;25.95;9.75;;;;;;;10.65;66.88;100643.34;5004843;28;20050;-45
2022/05/02 02:37:50;;;;;;;24.95;9.93;;;;;;;10.65;67.06;100645.94;4997293;28;20116;-43
2022/05/02 02:40:34;;;;;;;25.35;10.00;;;;;;;10.63;66.93;100643.34;5001768;28;20394;-41
2022/05/02 02:43:01;;;;;;;28.33;10.65;;;;;;;10.63;66.96;100645.06;5000590;28;20096;-42
2022/05/02 02:45:28;;;;;;;26.30;9.93;;;;;;;10.63;67.21;100645.06;4998279;28;20142;-47
2022/05/02 02:47:54;;;;;;;25.60;10.27;;;;;;;10.61;67.62;100637.25;5002679;28;20096;-40
2022/05/02 02:50:21;;;;;;;28.33;11.60;;;;;;;10.62;67.36;100640.72;4998502;28;20430;-44
2022/05/02 02:52:48;;;;;;;23.75;10.02;;;;;;;10.60;67.93;100639.88;4999051;28;20058;-44
2022/05/02 02:55:14;;;;;;;30.15;10.60;;;;;;;10.59;66.79;100635.53;4998889;28;20057;-41
2022/05/02 02:57:41;;;;;;;26.00;10.15;;;;;;;10.59;67.29;100638.13;5001923;28;20046;-46
2022/05/02 03:00:08;;;;;;;24.95;9.68;;;;;;;10.57;67.72;100639.84;5002223;28;20049;-42
2022/05/02 03:02:37;;;;;;;28.95;10.65;;;;;;;10.54;67.34;100641.53;5001769;28;20041;-41
2022/05/02 03:07:51;;;;;;;28.70;10.45;;;;;;;10.51;67.76;100641.53;4994363;28;20042;-39
2022/05/02 03:10:18;;;;;;;25.98;9.85;;;;;;;10.52;68.11;100635.50;4997549;28;20104;-45
2022/05/02 03:12:46;;;;;;;25.33;9.52;;;;;;;10.52;67.53;100638.09;4991816;28;20054;-44
2022/05/02 03:15:12;;;;;;;29.70;13.02;;;;;;;10.50;67.71;100642.38;4999694;28;20484;-46
2022/05/02 03:17:39;;;;;;;26.60;10.02;;;;;;;10.48;68.29;100638.94;4995442;28;20046;-45
2022/05/02 03:20:06;;;;;;;29.83;10.52;;;;;;;10.48;67.68;100635.47;5000403;28;20049;-44
2022/05/02 03:22:33;;;;;;;27.17;10.50;;;;;;;10.47;68.25;100634.59;4998375;28;20046;-40
2022/05/02 03:24:59;;;;;;;30.45;10.10;;;;;;;10.46;67.95;100632.84;5002009;28;20136;-41
2022/05/02 03:27:26;;;;;;;26.13;9.65;;;;;;;10.49;68.23;100626.81;4995717;28;20796;-40
2022/05/02 03:29:53;;;;;;;26.40;9.98;;;;;;;10.48;67.93;100625.97;5000097;28;20041;-46
2022/05/02 03:32:20;;;;;;;26.63;10.55;;;;;;;10.48;68.09;100625.97;4998506;28;21877;-42
2022/05/02 03:34:46;;;;;;;27.77;10.95;;;;;;;10.47;68.41;100631.16;5001116;28;20058;-42
2022/05/02 03:37:14;;;;;;;28.23;9.93;;;;;;;10.47;67.53;100629.41;4995828;28;21083;-42
2022/05/02 03:39:40;;;;;;;26.08;11.02;;;;;;;10.48;67.90;100627.69;4996884;28;20123;-43
2022/05/02 03:42:07;;;;;;;31.98;11.23;;;;;;;10.47;67.82;100624.22;5000234;28;20050;-40
2022/05/02 03:44:34;;;;;;;26.08;9.73;;;;;;;10.46;67.42;100627.69;4999064;28;20054;-41
2022/05/02 03:47:00;;;;;;;26.90;10.65;;;;;;;10.47;68.25;100629.41;4997614;28;20760;-41
2022/05/02 03:49:27;;;;;;;30.58;11.07;;;;;;;10.47;67.97;100625.97;4993147;28;20104;-45
2022/05/02 03:51:54;;;;;;;29.85;11.05;;;;;;;10.44;67.64;100624.19;4992442;28;20049;-39
2022/05/02 03:54:20;;;;;;;29.98;11.25;;;;;;;10.41;68.24;100629.34;5001272;28;20101;-45
2022/05/02 03:56:47;;;;;;;24.85;10.85;;;;;;;10.39;68.35;100623.28;4996954;28;20058;-42
2022/05/02 03:59:14;;;;;;;33.45;11.65;;;;;;;10.37;68.53;100617.25;4999154;28;20104;-43
2022/05/02 04:01:41;;;;;;;32.72;12.23;;;;;;;10.34;68.68;100619.78;4998399;28;20433;-41
2022/05/02 04:04:08;;;;;;;29.40;11.10;;;;;;;10.33;68.84;100618.06;5001527;28;20050;-40
2022/05/02 04:06:35;;;;;;;29.85;11.55;;;;;;;10.34;68.63;100622.38;4995525;28;20145;-42
2022/05/02 04:09:03;;;;;;;27.05;11.70;;;;;;;10.32;68.98;100624.09;4998198;28;20046;-43
2022/05/02 04:11:30;;;;;;;26.42;10.40;;;;;;;10.27;68.74;100617.16;4995838;28;20553;-40
2022/05/02 04:13:56;;;;;;;29.17;10.10;;;;;;;10.22;68.49;100613.66;4999669;28;20058;-41
2022/05/02 04:16:23;;;;;;;28.42;10.32;;;;;;;10.19;68.79;100621.41;4994779;28;20123;-38
2022/05/02 04:18:50;;;;;;;23.05;9.93;;;;;;;10.16;68.87;100623.97;4993739;28;20100;-42
2022/05/02 04:21:16;;;;;;;24.10;10.15;;;;;;;10.11;69.49;100615.31;4998673;28;20116;-40
2022/05/02 04:23:43;;;;;;;28.83;9.65;;;;;;;10.10;69.45;100618.75;4996574;28;20054;-45
2022/05/02 04:26:09;;;;;;;29.70;10.13;;;;;;;10.10;69.87;100618.75;4994743;28;20100;-40
2022/05/02 04:28:36;;;;;;;24.90;9.65;;;;;;;10.12;69.45;100617.03;4996620;28;20049;-42
2022/05/02 04:31:02;;;;;;;27.83;9.82;;;;;;;10.14;69.00;100615.34;5005100;28;20053;-40
2022/05/02 04:33:29;;;;;;;29.15;9.93;;;;;;;10.18;68.90;100618.78;4997537;28;20125;-40
2022/05/02 04:35:56;;;;;;;26.33;9.60;;;;;;;10.20;69.01;100620.53;5001980;28;20062;-40
2022/05/02 04:38:22;;;;;;;27.30;10.18;;;;;;;10.22;68.42;100618.84;5001682;28;20092;-39
2022/05/02 04:40:49;;;;;;;26.27;10.07;;;;;;;10.22;69.14;100624.03;4993024;28;20074;-42
2022/05/02 04:43:16;;;;;;;26.30;10.60;;;;;;;10.23;68.91;100622.31;4991828;28;20121;-41
2022/05/02 04:45:42;;;;;;;32.25;10.45;;;;;;;10.24;68.53;100627.47;4997995;28;20062;-40
2022/05/02 04:48:10;;;;;;;25.45;9.88;;;;;;;10.25;68.84;100624.06;4993787;28;20124;-43
2022/05/02 04:50:37;;;;;;;27.90;10.73;;;;;;;10.25;68.75;100624.06;4996814;28;20141;-41
2022/05/02 04:53:04;;;;;;;28.60;10.02;;;;;;;10.26;68.24;100615.41;4997966;28;20054;-44
2022/05/02 04:55:30;;;;;;;34.63;11.35;;;;;;;10.27;68.34;100611.97;4995296;28;20058;-45
2022/05/02 04:57:57;;;;;;;27.85;10.45;;;;;;;10.28;68.34;100618.03;4999898;28;20120;-42
2022/05/02 05:00:24;;;;;;;27.83;10.45;;;;;;;10.29;68.78;100618.03;4996539;28;20054;-39
2022/05/02 05:02:51;;;;;;;28.38;10.30;;;;;;;10.29;68.37;100612.88;4996245;28;21205;-44
2022/05/02 05:05:25;;;;;;;29.33;10.82;;;;;;;10.31;68.30;100617.19;4995160;28;20124;-41
2022/05/02 05:07:51;;;;;;;26.00;10.73;;;;;;;10.33;68.48;100626.69;4997631;28;20101;-39
2022/05/02 05:10:18;;;;;;;31.88;10.93;;;;;;;10.34;68.93;100622.38;4994901;28;20076;-40
2022/05/02 05:48:24;;;;;;;31.63;12.40;;;;;;;10.55;70.13;100642.44;5063270;27;20401;-41
2022/05/02 06:04:10;;;;;;;29.65;10.90;;;;;;;10.66;69.96;100660.63;5036793;27;20418;-42
2022/05/02 06:06:36;;;;;;;31.10;11.00;;;;;;;10.66;70.14;100655.44;5021493;28;20049;-40
2022/05/02 06:09:05;;;;;;;27.20;11.32;;;;;;;10.67;70.30;100662.34;5017957;28;20053;-42
2022/05/02 06:11:33;;;;;;;28.77;11.52;;;;;;;10.69;69.49;100657.19;5019895;28;20505;-44
2022/05/02 06:14:02;;;;;;;30.25;11.20;;;;;;;10.73;69.42;100659.81;5015190;28;20049;-40
2022/05/02 06:19:28;;;;;;;32.50;12.40;;;;;;;10.77;69.41;100665.84;5020935;28;20049;-47
2022/05/02 06:21:56;;;;;;;32.28;11.05;;;;;;;10.83;69.94;100667.63;5021638;28;20057;-45
2022/05/02 06:24:31;;;;;;;33.92;12.15;;;;;;;10.85;70.08;100660.75;5014087;28;20103;-40
2022/05/02 06:27:15;;;;;;;29.50;11.02;;;;;;;10.89;69.31;100672.84;5020688;28;20116;-41
2022/05/02 06:29:42;;;;;;;30.23;11.60;;;;;;;10.93;69.81;100669.44;5015241;28;20046;-39
2022/05/02 06:32:11;;;;;;;36.38;13.73;;;;;;;10.95;69.35;100672.91;5003321;28;20079;-46
2022/05/02 06:34:39;;;;;;;37.92;13.55;;;;;;;10.94;69.98;100671.16;5000787;28;20105;-42
2022/05/02 06:37:32;;;;;;;35.33;13.05;;;;;;;10.94;70.20;100676.34;5013007;28;20041;-41
2022/05/02 06:40:06;;;;;;;36.22;13.15;;;;;;;11.01;69.25;100675.50;5017897;28;20061;-41
2022/05/02 06:45:41;;;;;;;35.65;14.90;;;;;;;11.09;69.63;100674.69;5035371;28;20402;-43
2022/05/02 06:53:54;;;;;;;36.90;13.52;;;;;;;11.27;69.52;100679.97;5055461;28;20409;-42
2022/05/02 07:01:50;;;;;;;39.45;14.15;;;;;;;11.46;69.37;100680.06;5003701;28;20911;-41
2022/05/02 07:12:53;;;;;;;40.35;14.15;;;;;;;11.55;68.69;100695.63;5041020;28;20416;-45
2022/05/02 07:15:26;;;;;;;37.28;14.45;;;;;;;11.55;68.91;100689.59;5018164;28;20050;-43
2022/05/02 07:23:47;;;;;;;33.38;13.32;;;;;;;11.60;70.12;100692.19;5053555;28;20396;-45
2022/05/02 07:26:15;;;;;;;33.88;12.73;;;;;;;11.68;70.12;100687.91;5038599;28;20053;-48
2022/05/02 07:28:45;;;;;;;34.20;13.20;;;;;;;11.75;69.86;100692.25;5040130;28;20139;-42
2022/05/02 07:31:17;;;;;;;37.33;13.02;;;;;;;11.85;69.29;100702.66;5040674;28;20094;-44
2022/05/02 07:33:48;;;;;;;36.00;12.88;;;;;;;11.90;68.47;100703.53;5035252;28;20120;-42
2022/05/02 07:36:18;;;;;;;33.20;12.80;;;;;;;11.96;68.45;100711.34;5037265;28;20103;-43
2022/05/02 07:38:48;;;;;;;37.03;13.45;;;;;;;12.06;68.37;100710.50;5039436;28;20045;-41
2022/05/02 07:41:25;;;;;;;35.78;13.35;;;;;;;12.17;69.21;100709.69;5043174;28;20057;-44
2022/05/02 07:44:02;;;;;;;32.60;12.77;;;;;;;12.25;68.52;100709.66;5042326;28;20128;-44
2022/05/02 07:46:37;;;;;;;32.38;11.88;;;;;;;12.32;67.92;100714.88;5037227;28;20049;-44
2022/05/02 07:49:06;;;;;;;26.80;10.65;;;;;;;12.27;68.57;100714.03;5039981;28;20045;-42
2022/05/02 07:51:40;;;;;;;37.45;11.55;;;;;;;12.30;67.33;100716.59;5041240;28;20045;-40
2022/05/02 07:54:11;;;;;;;28.88;11.68;;;;;;;12.39;67.27;100717.50;5039872;28;20041;-42
2022/05/02 07:56:41;;;;;;;27.80;11.13;;;;;;;12.49;67.87;100706.22;5040408;28;20397;-43
2022/05/02 07:59:10;;;;;;;31.63;11.88;;;;;;;12.57;67.96;100708.84;5036807;28;20091;-41
2022/05/02 08:01:38;;;;;;;33.40;11.80;;;;;;;12.60;66.66;100709.69;5037515;28;20057;-43
2022/05/02 08:04:06;;;;;;;25.88;10.00;;;;;;;12.66;66.71;100707.97;5040544;28;20680;-42
2022/05/02 08:17:58;;;;;;;24.15;11.77;;;;;;;12.96;67.62;100712.25;5064160;28;20392;-47
2022/05/02 08:28:47;;;;;;;24.33;9.32;;;;;;;13.45;65.58;100735.53;5029979;27;20766;-44
2022/05/02 08:31:20;;;;;;;21.83;9.70;;;;;;;13.53;64.88;100731.19;5016229;28;20095;-42
2022/05/02 08:34:00;;;;;;;21.60;8.95;;;;;;;13.62;65.15;100738.94;5019744;28;20498;-40
2022/05/02 08:36:42;;;;;;;21.35;10.57;;;;;;;13.72;65.10;100738.91;5006931;28;20069;-40
2022/05/02 08:39:15;;;;;;;25.52;10.75;;;;;;;13.79;64.32;100737.16;5003783;28;20050;-50
2022/05/02 08:42:22;;;;;;;22.50;10.75;;;;;;;13.81;64.37;100738.84;5010175;28;20050;-42
2022/05/02 11:35:28;;;;;;;5.60;3.05;;;;;;;19.28;42.52;100707.31;5049973;28;20397;-45
2022/05/02 11:40:45;;;;;;;5.75;2.47;;;;;;;19.17;44.25;100705.00;5029135;28;20421;-42
2022/05/02 11:43:19;;;;;;;6.65;2.55;;;;;;;19.18;43.82;100701.47;4995894;28;20049;-40
2022/05/02 11:46:03;;;;;;;6.13;2.80;;;;;;;19.06;43.13;100699.16;5009148;28;20441;-42
2022/05/02 11:51:21;;;;;;;9.02;4.82;;;;;;;18.85;43.75;100696.22;5037169;27;20394;-43
2022/05/02 11:53:51;;;;;;;7.07;4.55;;;;;;;18.79;43.58;100691.13;5003153;28;20553;-40
2022/05/02 11:56:22;;;;;;;8.88;5.05;;;;;;;18.79;44.80;100692.00;4997178;28;20054;-42
2022/05/02 11:59:03;;;;;;;6.72;3.40;;;;;;;18.75;44.38;100691.19;4998496;28;20451;-41
2022/05/02 12:01:37;;;;;;;7.95;5.80;;;;;;;18.77;44.58;100692.94;4999359;28;20297;-42
2022/05/02 12:04:04;;;;;;;8.93;4.60;;;;;;;18.84;44.90;100694.47;5002381;28;20050;-43
2022/05/02 12:06:48;;;;;;;8.73;4.90;;;;;;;18.89;44.49;100689.97;4996089;28;20081;-43
2022/05/02 12:09:22;;;;;;;5.60;4.15;;;;;;;18.99;44.57;100688.81;4985652;28;20073;-42
2022/05/02 12:11:52;;;;;;;4.63;2.97;;;;;;;19.06;43.63;100689.56;5001180;28;20042;-42
2022/05/02 12:14:20;;;;;;;4.15;2.92;;;;;;;19.09;43.72;100683.34;4994897;28;20046;-44
2022/05/02 12:17:09;;;;;;;5.82;3.45;;;;;;;19.04;42.79;100695.72;4996268;28;20062;-44
2022/05/02 12:19:38;;;;;;;4.75;2.95;;;;;;;19.17;43.47;100697.13;5000545;28;20066;-38
2022/05/02 12:22:16;;;;;;;4.65;3.17;;;;;;;19.23;43.57;100696.94;4999621;28;20050;-40
2022/05/02 12:24:45;;;;;;;4.75;3.13;;;;;;;19.36;43.29;100691.34;4994246;28;20042;-40
2022/05/02 12:27:14;;;;;;;5.25;3.63;;;;;;;19.43;43.52;100692.88;4996950;28;20046;-41
2022/05/02 12:29:42;;;;;;;5.43;4.13;;;;;;;19.42;42.83;100688.50;4994775;28;20146;-41
2022/05/02 12:32:10;;;;;;;6.43;3.63;;;;;;;19.43;43.13;100692.88;4992741;28;20054;-42
2022/05/02 12:34:39;;;;;;;6.00;4.50;;;;;;;19.45;42.99;100688.44;4992439;28;20096;-42
2022/05/02 12:37:12;;;;;;;6.00;4.15;;;;;;;19.42;42.65;100691.13;4994920;28;20046;-42
2022/05/02 12:39:49;;;;;;;6.70;5.13;;;;;;;19.39;42.83;100697.34;4994181;28;20116;-43
2022/05/02 12:42:18;;;;;;;6.82;4.97;;;;;;;19.48;43.23;100690.97;4990748;28;20057;-45
2022/05/02 12:45:10;;;;;;;6.13;4.80;;;;;;;19.56;43.67;100687.25;4995945;28;20560;-40
2022/05/02 12:47:59;;;;;;;9.85;5.53;;;;;;;19.59;43.16;100688.00;4995214;28;20121;-42
2022/05/02 12:50:28;;;;;;;7.00;4.85;;;;;;;19.59;43.25;100689.78;4996427;28;20045;-40
2022/05/02 12:52:57;;;;;;;6.85;4.47;;;;;;;19.59;43.59;100687.16;4993892;28;20062;-45
2022/05/02 12:55:30;;;;;;;8.75;5.55;;;;;;;19.55;43.12;100696.06;4995045;28;20120;-41
2022/05/02 13:00:49;;;;;;;7.47;5.10;;;;;;;19.38;43.72;100681.63;4989157;28;20058;-42
2022/05/02 13:03:20;;;;;;;6.57;4.53;;;;;;;19.34;44.17;100674.75;4979164;28;20054;-41
2022/05/02 13:13:47;;;;;;;5.63;2.70;;;;;;;19.29;43.43;100671.41;5022301;28;20414;-42
2022/05/02 13:21:41;;;;;;;6.72;4.38;;;;;;;19.24;44.00;100671.53;5022870;28;20416;-42
2022/05/02 13:24:12;;;;;;;7.00;3.83;;;;;;;19.15;43.65;100667.41;4995360;28;20097;-41
2022/05/02 13:27:03;;;;;;;7.00;4.22;;;;;;;19.09;43.95;100660.59;4994029;28;20081;-43
2022/05/02 13:29:57;;;;;;;5.65;3.42;;;;;;;19.10;43.05;100664.94;4986685;28;20050;-42
2022/05/02 13:32:26;;;;;;;5.85;3.50;;;;;;;19.12;43.31;100662.25;4990812;28;20054;-41
2022/05/02 13:35:05;;;;;;;6.63;4.15;;;;;;;19.11;43.21;100665.78;4983729;28;20039;-43
2022/05/02 13:40:12;;;;;;;5.90;2.47;;;;;;;19.11;43.16;100660.53;5023948;27;20402;-43
2022/05/02 13:45:41;;;;;;;5.82;2.63;;;;;;;19.13;43.01;100658.72;5012089;28;22402;-43
2022/05/02 13:48:48;;;;;;;4.30;2.40;;;;;;;19.10;43.09;100661.44;4991099;28;20046;-41
2022/05/02 13:54:00;;;;;;;6.22;4.53;;;;;;;19.11;43.51;100658.78;5108132;27;20956;-44
2022/05/02 13:57:04;;;;;;;5.70;4.22;;;;;;;19.13;43.42;100658.72;5085048;28;20051;-44
2022/05/02 14:12:53;;;;;;;5.72;3.90;;;;;;;19.02;42.87;100654.59;5028441;27;20400;-44
2022/05/02 14:15:20;;;;;;;5.18;3.83;;;;;;;18.96;43.09;100651.31;5019776;28;20512;-40
2022/05/02 14:17:51;;;;;;;5.28;3.47;;;;;;;18.92;42.71;100660.16;5016590;28;20053;-40
2022/05/02 14:28:14;;;;;;;6.00;3.92;;;;;;;18.91;43.02;100653.19;5029546;27;20444;-43
2022/05/02 14:30:48;;;;;;;5.25;4.18;;;;;;;18.89;43.50;100654.09;5011388;28;20552;-47
2022/05/02 14:33:28;;;;;;;5.03;4.53;;;;;;;18.88;42.60;100654.16;5009616;28;20100;-43
2022/05/02 14:35:56;;;;;;;5.00;3.40;;;;;;;18.88;43.13;100654.16;5008568;28;20049;-50
2022/05/02 14:38:25;;;;;;;5.18;3.35;;;;;;;18.86;42.53;100650.69;5006334;28;20050;-41
2022/05/02 14:40:55;;;;;;;5.50;3.28;;;;;;;18.85;42.67;100652.44;4998607;28;20387;-41
2022/05/02 14:43:26;;;;;;;4.85;3.83;;;;;;;18.85;43.30;100654.22;4992371;28;20085;-41
2022/05/02 14:45:53;;;;;;;4.22;3.22;;;;;;;18.87;43.18;100655.03;5004197;28;20564;-42
2022/05/02 14:48:21;;;;;;;5.18;3.67;;;;;;;18.85;43.62;100654.22;5008418;28;20041;-43
2022/05/02 14:50:51;;;;;;;5.00;3.70;;;;;;;18.81;42.98;100652.59;5010352;28;20042;-43
2022/05/02 14:53:20;;;;;;;6.40;4.65;;;;;;;18.81;42.92;100656.06;5010825;28;20549;-40
2022/05/02 14:55:58;;;;;;;6.93;5.05;;;;;;;18.82;42.76;100651.69;5007680;28;20041;-45
2022/05/02 14:58:26;;;;;;;5.10;4.10;;;;;;;18.89;42.97;100656.72;5010490;28;20096;-44
2022/05/02 15:00:58;;;;;;;4.88;4.03;;;;;;;18.93;42.66;100657.50;5011580;28;20054;-42
2022/05/02 15:03:30;;;;;;;4.97;4.03;;;;;;;18.97;42.40;100653.00;5011731;28;20050;-41
2022/05/02 15:06:01;;;;;;;7.18;4.18;;;;;;;18.96;42.45;100654.78;4998671;28;20069;-42
2022/05/02 15:16:51;;;;;;;5.18;3.15;;;;;;;19.06;42.55;100649.28;5021991;28;20402;-41
2022/05/02 15:38:58;;;;;;;4.55;2.97;;;;;;;19.30;42.14;100646.84;5049165;28;20048;-43
2022/05/02 15:44:19;;;;;;;7.05;4.78;;;;;;;19.32;42.28;100652.94;5013110;28;20417;-47
2022/05/02 15:49:27;;;;;;;6.57;3.58;;;;;;;19.36;41.95;100654.56;5019502;28;20890;-42
2022/05/02 15:52:01;;;;;;;4.95;3.08;;;;;;;19.34;41.37;100653.75;5000248;28;20050;-42
2022/05/02 16:03:11;;;;;;;4.88;3.03;;;;;;;19.18;41.13;100641.06;5037153;28;20385;-45
2022/05/02 16:05:44;;;;;;;8.32;3.10;;;;;;;19.15;41.74;100641.16;5001912;28;20045;-45
2022/05/02 16:11:02;;;;;;;6.60;3.50;;;;;;;18.87;42.60;100637.53;5010762;28;20038;-42
2022/05/02 16:13:36;;;;;;;7.22;3.33;;;;;;;18.80;42.43;100640.34;4992292;28;20046;-42
2022/05/02 16:16:21;;;;;;;6.13;2.88;;;;;;;18.71;42.19;100644.13;4997935;28;20050;-45
2022/05/02 16:18:51;;;;;;;5.45;3.60;;;;;;;18.76;42.54;100650.09;5011953;28;20064;-44
2022/05/02 16:21:35;;;;;;;7.07;3.05;;;;;;;18.73;42.43;100647.53;5008118;28;20044;-44
2022/05/02 16:24:03;;;;;;;5.35;2.90;;;;;;;18.75;42.54;100643.13;4995263;28;20808;-40
2022/05/02 16:26:29;;;;;;;6.68;3.30;;;;;;;18.75;42.47;100643.97;4994400;28;20050;-48
2022/05/02 16:28:59;;;;;;;4.38;2.60;;;;;;;18.73;42.62;100644.91;4997406;28;20125;-44
2022/05/02 16:31:26;;;;;;;5.05;3.33;;;;;;;18.68;42.58;100641.56;4992008;28;20038;-40
2022/05/02 16:34:01;;;;;;;5.32;3.13;;;;;;;18.61;41.27;100640.88;4995259;28;20047;-43
2022/05/02 16:36:28;;;;;;;5.40;4.18;;;;;;;18.59;42.55;100640.91;4994378;28;20610;-44
2022/05/02 16:38:55;;;;;;;5.40;2.90;;;;;;;18.57;42.58;100644.47;4993059;28;20050;-41
2022/05/02 16:41:25;;;;;;;7.07;3.33;;;;;;;18.55;42.77;100646.28;4994876;28;20050;-46
2022/05/02 16:44:10;;;;;;;6.43;3.53;;;;;;;18.45;43.04;100646.53;5000621;28;20056;-43
2022/05/02 16:46:40;;;;;;;6.45;3.72;;;;;;;18.39;43.34;100645.81;4994887;28;20077;-41
2022/05/02 16:49:10;;;;;;;7.05;3.72;;;;;;;18.28;43.14;100648.72;4999128;28;20066;-44
2022/05/02 16:51:37;;;;;;;7.72;5.22;;;;;;;18.18;42.91;100642.84;5000991;28;20382;-42
2022/05/02 16:54:05;;;;;;;7.10;3.35;;;;;;;18.07;43.99;100643.09;4998928;28;20049;-41
2022/05/02 16:56:31;;;;;;;6.15;3.65;;;;;;;17.98;43.77;100646.78;4993318;28;20053;-43
2022/05/02 16:58:58;;;;;;;7.10;4.15;;;;;;;17.91;43.34;100648.72;4999294;28;20050;-41
2022/05/02 17:01:26;;;;;;;8.55;4.15;;;;;;;17.86;44.00;100647.94;5002610;28;20121;-40
2022/05/02 17:03:57;;;;;;;11.13;6.22;;;;;;;17.76;45.14;100643.81;4999054;28;20056;-40
2022/05/02 17:06:26;;;;;;;13.02;6.82;;;;;;;17.55;45.63;100651.25;4996623;28;20060;-40
2022/05/02 17:08:55;;;;;;;16.95;8.20;;;;;;;17.34;47.17;100645.59;5001665;28;20050;-43
2022/05/02 17:11:22;;;;;;;15.80;8.50;;;;;;;17.19;47.10;100647.66;5001875;28;20137;-40
2022/05/02 17:13:50;;;;;;;18.00;9.10;;;;;;;17.05;48.25;100647.94;4991083;28;20054;-47
2022/05/02 17:16:21;;;;;;;17.60;8.70;;;;;;;16.91;48.04;100647.31;4987723;28;20577;-42
2022/05/02 17:29:32;;;;;;;18.77;8.43;;;;;;;16.38;51.14;100649.13;5042756;28;20409;-49
2022/05/02 17:32:05;;;;;;;16.00;7.97;;;;;;;16.25;51.48;100653.69;5043187;28;20103;-43
2022/05/02 17:34:41;;;;;;;15.88;9.63;;;;;;;16.11;51.92;100655.69;5041304;28;20449;-42
2022/05/02 17:37:09;;;;;;;15.75;7.90;;;;;;;16.04;51.80;100657.53;5036561;28;20049;-42
2022/05/02 17:39:39;;;;;;;18.92;8.50;;;;;;;15.92;52.28;100656.81;5047016;28;20053;-41
2022/05/02 17:42:09;;;;;;;17.45;8.50;;;;;;;15.85;52.69;100660.41;5042069;28;20053;-43
2022/05/02 17:44:37;;;;;;;18.52;9.60;;;;;;;15.80;52.75;100656.97;5039605;28;20114;-40
2022/05/02 17:47:09;;;;;;;21.00;10.40;;;;;;;15.75;52.94;100661.41;5042286;28;20132;-44
2022/05/02 17:49:39;;;;;;;22.35;10.15;;;;;;;15.70;53.19;100660.63;5038538;28;20065;-41
2022/05/02 17:52:10;;;;;;;22.48;11.57;;;;;;;15.64;53.38;100662.44;5043359;28;20106;-41
2022/05/02 17:54:56;;;;;;;22.77;11.45;;;;;;;15.59;53.49;100660.75;5041600;28;20072;-40
2022/05/02 17:57:26;;;;;;;27.05;13.45;;;;;;;15.57;54.07;100660.78;5035165;28;20049;-40